Time;durP1;ratioP1;P1;durP2;ratioP2;P2;SDS_P1;SDS_P2;PMS_P1;PMS_P2;Temp;Humidity;BMP_temperature;BMP_pressure;BME280_temperature;BME280_humidity;BME280_pressure;Samples;Min_cycle;Max_cycle;Signal;HPM_P1;HPM_P2
2021/03/06 00:01:24;;;;;;;;;;;;;;;;;;5034938;28;19928;-77
2021/03/06 00:03:51;;;;;;;;;;;;;;;;;;5034624;28;19925;-76
2021/03/06 00:06:18;;;;;;;;;;;;;;;;;;5034426;28;19927;-77
2021/03/06 00:08:44;;;;;;;;;;;;;;;;;;5034840;28;19925;-77
2021/03/06 00:11:11;;;;;;;;;;;;;;;;;;5035091;28;19921;-77
2021/03/06 00:13:38;;;;;;;;;;;;;;;;;;5034780;28;19968;-77
2021/03/06 00:16:04;;;;;;;;;;;;;;;;;;5034936;28;19925;-77
2021/03/06 00:18:31;;;;;;;;;;;;;;;;;;5034930;28;19921;-77
2021/03/06 00:20:58;;;;;;;;;;;;;;;;;;5034796;28;19921;-77
2021/03/06 00:23:24;;;;;;;;;;;;;;;;;;5017219;28;19932;-78
2021/03/06 00:25:51;;;;;;;;;;;;;;;;;;5034250;28;19928;-77
2021/03/06 00:28:18;;;;;;;;;;;;;;;;;;5034504;28;20019;-78
2021/03/06 00:30:45;;;;;;;;;;;;;;;;;;5034798;28;19971;-77
2021/03/06 00:33:11;;;;;;;;;;;;;;;;;;5034723;28;19983;-77
2021/03/06 00:35:38;;;;;;;;;;;;;;;;;;5034732;28;19928;-77
2021/03/06 00:38:04;;;;;;;;;;;;;;;;;;5034295;28;19932;-77
2021/03/06 00:40:31;;;;;;;;;;;;;;;;;;5034228;28;19921;-77
2021/03/06 00:42:58;;;;;;;;;;;;;;;;;;5034310;28;19921;-77
2021/03/06 00:45:24;;;;;;;;;;;;;;;;;;5034260;28;20389;-77
2021/03/06 00:47:51;;;;;;;;;;;;;;;;;;5016874;28;20366;-77
2021/03/06 00:50:18;;;;;;;;;;;;;;;;;;5034474;28;19952;-77
2021/03/06 00:52:44;;;;;;;;;;;;;;;;;;5034419;28;19932;-77
2021/03/06 00:55:11;;;;;;;;;;;;;;;;;;5034426;28;19920;-77
2021/03/06 00:57:38;;;;;;;;;;;;;;;;;;5033895;28;20018;-77
2021/03/06 01:00:04;;;;;;;;;;;;;;;;;;5034283;28;19944;-77
2021/03/06 01:02:31;;;;;;;;;;;;;;;;;;5034287;28;19944;-77
2021/03/06 01:04:57;;;;;;;;;;;;;;;;;;5016664;28;20317;-77
2021/03/06 01:07:24;;;;;;;;;;;;;;;;;;5033961;28;19933;-77
2021/03/06 01:09:51;;;;;;;;;;;;;;;;;;5034168;28;19921;-77
2021/03/06 01:12:17;;;;;;;;;;;;;;;;;;5034220;28;19921;-77
2021/03/06 01:14:44;;;;;;;;;;;;;;;;;;5033635;28;19921;-77
2021/03/06 01:17:11;;;;;;;;;;;;;;;;;;5034137;28;19921;-77
2021/03/06 01:19:37;;;;;;;;;;;;;;;;;;5034164;28;20278;-77
2021/03/06 01:22:04;;;;;;;;;;;;;;;;;;5033840;28;19921;-77
2021/03/06 01:24:30;;;;;;;;;;;;;;;;;;5033863;28;19928;-77
2021/03/06 01:26:57;;;;;;;;;;;;;;;;;;5033908;28;19971;-77
2021/03/06 01:29:24;;;;;;;;;;;;;;;;;;5033725;28;20367;-75
2021/03/06 01:31:50;;;;;;;;;;;;;;;;;;5033812;28;19921;-75
2021/03/06 01:34:17;;;;;;;;;;;;;;;;;;5033704;28;19928;-75
2021/03/06 01:36:44;;;;;;;;;;;;;;;;;;5034085;28;19974;-75
2021/03/06 01:39:10;;;;;;;;;;;;;;;;;;5016108;28;20355;-74
2021/03/06 01:41:37;;;;;;;;;;;;;;;;;;5034170;28;19965;-75
2021/03/06 01:44:04;;;;;;;;;;;;;;;;;;5033933;28;19921;-75
2021/03/06 01:46:30;;;;;;;;;;;;;;;;;;5033976;28;20271;-77
2021/03/06 01:48:57;;;;;;;;;;;;;;;;;;5033878;28;20398;-77
2021/03/06 01:51:25;;;;;;;;;;;;;;;;;;5034111;28;20364;-77
2021/03/06 01:53:52;;;;;;;;;;;;;;;;;;5033851;28;19921;-77
2021/03/06 01:56:18;;;;;;;;;;;;;;;;;;5034453;28;19921;-77
2021/03/06 01:58:45;;;;;;;;;;;;;;;;;;5033474;28;19925;-77
2021/03/06 02:01:12;;;;;;;;;;;;;;;;;;5033553;28;19921;-77
2021/03/06 02:03:38;;;;;;;;;;;;;;;;;;5033526;28;20268;-77
2021/03/06 02:06:05;;;;;;;;;;;;;;;;;;5033472;28;20291;-77
2021/03/06 02:08:32;;;;;;;;;;;;;;;;;;5033711;28;19974;-77
2021/03/06 02:10:58;;;;;;;;;;;;;;;;;;5034519;28;19964;-77
2021/03/06 02:13:25;;;;;;;;;;;;;;;;;;5033660;28;19925;-76
2021/03/06 02:15:52;;;;;;;;;;;;;;;;;;5033475;28;19921;-77
2021/03/06 02:18:18;;;;;;;;;;;;;;;;;;5033640;28;19944;-77
2021/03/06 02:20:45;;;;;;;;;;;;;;;;;;5033220;28;19979;-77
2021/03/06 02:23:12;;;;;;;;;;;;;;;;;;5033304;28;19928;-77
2021/03/06 02:25:38;;;;;;;;;;;;;;;;;;5033224;28;19951;-77
2021/03/06 02:28:05;;;;;;;;;;;;;;;;;;5035305;28;19925;-78
2021/03/06 02:30:32;;;;;;;;;;;;;;;;;;5037127;28;19921;-77
2021/03/06 02:32:58;;;;;;;;;;;;;;;;;;5037066;28;20355;-77
2021/03/06 02:35:25;;;;;;;;;;;;;;;;;;5019152;28;19925;-77
2021/03/06 02:37:52;;;;;;;;;;;;;;;;;;5037060;28;19974;-77
2021/03/06 02:40:18;;;;;;;;;;;;;;;;;;5036790;28;19921;-77
2021/03/06 02:42:45;;;;;;;;;;;;;;;;;;5036787;28;19925;-77
2021/03/06 02:45:11;;;;;;;;;;;;;;;;;;5036822;28;20317;-77
2021/03/06 02:47:38;;;;;;;;;;;;;;;;;;5036713;28;19921;-77
2021/03/06 02:50:05;;;;;;;;;;;;;;;;;;5036693;28;19932;-77
2021/03/06 02:52:31;;;;;;;;;;;;;;;;;;5036548;28;19946;-78
2021/03/06 02:54:58;;;;;;;;;;;;;;;;;;5036687;28;20347;-77
2021/03/06 02:57:24;;;;;;;;;;;;;;;;;;5036419;28;19979;-77
2021/03/06 02:59:51;;;;;;;;;;;;;;;;;;5036797;28;20321;-77
2021/03/06 03:02:18;;;;;;;;;;;;;;;;;;5036508;28;20363;-77
2021/03/06 03:04:44;;;;;;;;;;;;;;;;;;5036103;28;19931;-77
2021/03/06 03:07:11;;;;;;;;;;;;;;;;;;5036194;28;19937;-77
2021/03/06 03:09:38;;;;;;;;;;;;;;;;;;5036440;28;19921;-77
2021/03/06 03:12:05;;;;;;;;;;;;;;;;;;5035930;28;20341;-77
2021/03/06 03:14:31;;;;;;;;;;;;;;;;;;5018614;28;20294;-77
2021/03/06 03:16:58;;;;;;;;;;;;;;;;;;5036223;28;19964;-77
2021/03/06 03:19:25;;;;;;;;;;;;;;;;;;5035749;28;19932;-77
2021/03/06 03:21:51;;;;;;;;;;;;;;;;;;5036211;28;19921;-77
2021/03/06 03:24:18;;;;;;;;;;;;;;;;;;5035806;28;19920;-77
2021/03/06 03:26:47;;;;;;;;;;;;;;;;;;5035904;28;19925;-77
2021/03/06 03:29:13;;;;;;;;;;;;;;;;;;5035971;28;19943;-77
2021/03/06 03:31:40;;;;;;;;;;;;;;;;;;5035630;28;19951;-77
2021/03/06 03:34:07;;;;;;;;;;;;;;;;;;5035650;28;19928;-77
2021/03/06 03:36:33;;;;;;;;;;;;;;;;;;5035817;28;19921;-77
2021/03/06 03:39:00;;;;;;;;;;;;;;;;;;5035099;28;19925;-77
2021/03/06 03:41:27;;;;;;;;;;;;;;;;;;5017920;28;19929;-77
2021/03/06 03:43:53;;;;;;;;;;;;;;;;;;5035695;28;19921;-77
2021/03/06 03:46:20;;;;;;;;;;;;;;;;;;5035752;28;19927;-77
2021/03/06 03:48:47;;;;;;;;;;;;;;;;;;5035648;28;19921;-76
2021/03/06 03:51:13;;;;;;;;;;;;;;;;;;5035495;28;20020;-77
2021/03/06 03:53:40;;;;;;;;;;;;;;;;;;5035020;28;19924;-77
2021/03/06 03:56:07;;;;;;;;;;;;;;;;;;5035387;28;19921;-77
2021/03/06 03:58:33;;;;;;;;;;;;;;;;;;5017320;28;20015;-77
2021/03/06 04:01:00;;;;;;;;;;;;;;;;;;5035108;28;19925;-77
2021/03/06 04:03:27;;;;;;;;;;;;;;;;;;5035315;28;19928;-77
2021/03/06 04:05:53;;;;;;;;;;;;;;;;;;5034901;28;19921;-76
2021/03/06 04:08:20;;;;;;;;;;;;;;;;;;5034869;28;19921;-77
2021/03/06 04:10:46;;;;;;;;;;;;;;;;;;5034792;28;19928;-77
2021/03/06 04:13:13;;;;;;;;;;;;;;;;;;5035057;28;19991;-77
2021/03/06 04:15:40;;;;;;;;;;;;;;;;;;5034819;28;20386;-77
2021/03/06 04:18:06;;;;;;;;;;;;;;;;;;5034821;28;20371;-77
2021/03/06 04:20:33;;;;;;;;;;;;;;;;;;5034765;28;20322;-77
2021/03/06 04:23:00;;;;;;;;;;;;;;;;;;5034648;28;20385;-77
2021/03/06 04:25:26;;;;;;;;;;;;;;;;;;5034660;28;19928;-77
2021/03/06 04:27:53;;;;;;;;;;;;;;;;;;5017032;28;19921;-77
2021/03/06 04:30:19;;;;;;;;;;;;;;;;;;5034782;28;19921;-77
2021/03/06 04:32:46;;;;;;;;;;;;;;;;;;5034841;28;19967;-77
2021/03/06 04:35:13;;;;;;;;;;;;;;;;;;5034512;28;20374;-77
2021/03/06 04:37:39;;;;;;;;;;;;;;;;;;5034788;28;19921;-77
2021/03/06 04:40:06;;;;;;;;;;;;;;;;;;5034315;28;19928;-76
2021/03/06 04:42:33;;;;;;;;;;;;;;;;;;5034562;28;19928;-77
2021/03/06 04:44:59;;;;;;;;;;;;;;;;;;5034303;28;20020;-77
2021/03/06 04:47:26;;;;;;;;;;;;;;;;;;5034576;28;19921;-77
2021/03/06 04:49:53;;;;;;;;;;;;;;;;;;5033744;28;19921;-77
2021/03/06 04:52:19;;;;;;;;;;;;;;;;;;5034386;28;19944;-77
2021/03/06 04:54:46;;;;;;;;;;;;;;;;;;5034201;28;20389;-77
2021/03/06 04:57:13;;;;;;;;;;;;;;;;;;5033823;28;19928;-77
2021/03/06 04:59:40;;;;;;;;;;;;;;;;;;5033942;28;19928;-77
2021/03/06 05:02:06;;;;;;;;;;;;;;;;;;5034197;28;19925;-77
2021/03/06 05:04:33;;;;;;;;;;;;;;;;;;5034349;28;19925;-77
2021/03/06 05:06:59;;;;;;;;;;;;;;;;;;5034317;28;19925;-78
2021/03/06 05:09:26;;;;;;;;;;;;;;;;;;5034303;28;19921;-77
2021/03/06 05:11:53;;;;;;;;;;;;;;;;;;5034190;28;19921;-77
2021/03/06 05:14:19;;;;;;;;;;;;;;;;;;5034246;28;19930;-77
2021/03/06 05:16:46;;;;;;;;;;;;;;;;;;5034314;28;19927;-77
2021/03/06 05:19:12;;;;;;;;;;;;;;;;;;5033859;28;19921;-77
2021/03/06 05:21:39;;;;;;;;;;;;;;;;;;5033956;28;19921;-77
2021/03/06 05:24:06;;;;;;;;;;;;;;;;;;5034011;28;19971;-77
2021/03/06 05:26:32;;;;;;;;;;;;;;;;;;5016431;28;19928;-77
2021/03/06 05:28:59;;;;;;;;;;;;;;;;;;5033899;28;19921;-77
2021/03/06 05:31:26;;;;;;;;;;;;;;;;;;5033748;28;19932;-76
2021/03/06 05:33:52;;;;;;;;;;;;;;;;;;5033761;28;19967;-77
2021/03/06 05:36:19;;;;;;;;;;;;;;;;;;5033611;28;19928;-77
2021/03/06 05:38:46;;;;;;;;;;;;;;;;;;5033956;28;19921;-78
2021/03/06 05:41:12;;;;;;;;;;;;;;;;;;5033579;28;19921;-77
2021/03/06 05:43:39;;;;;;;;;;;;;;;;;;5033761;28;19928;-77
2021/03/06 05:46:06;;;;;;;;;;;;;;;;;;5033937;28;19928;-77
2021/03/06 05:48:33;;;;;;;;;;;;;;;;;;5033620;28;19920;-78
2021/03/06 05:50:59;;;;;;;;;;;;;;;;;;5016186;28;19921;-77
2021/03/06 05:53:26;;;;;;;;;;;;;;;;;;5033808;28;19925;-77
2021/03/06 05:55:52;;;;;;;;;;;;;;;;;;5033515;28;20011;-77
2021/03/06 05:58:19;;;;;;;;;;;;;;;;;;5033430;28;19921;-77
2021/03/06 06:00:46;;;;;;;;;;;;;;;;;;5034011;28;19928;-76
2021/03/06 06:03:12;;;;;;;;;;;;;;;;;;5037960;28;19988;-77
2021/03/06 06:05:39;;;;;;;;;;;;;;;;;;5037585;28;19921;-77
2021/03/06 06:08:06;;;;;;;;;;;;;;;;;;5037518;28;20306;-76
2021/03/06 06:10:32;;;;;;;;;;;;;;;;;;5019560;28;19928;-77
2021/03/06 06:12:59;;;;;;;;;;;;;;;;;;5037176;28;19921;-77
2021/03/06 06:15:26;;;;;;;;;;;;;;;;;;5037360;28;20354;-77
2021/03/06 06:17:52;;;;;;;;;;;;;;;;;;5036992;28;19928;-77
2021/03/06 06:20:19;;;;;;;;;;;;;;;;;;5036873;28;19921;-77
2021/03/06 06:22:45;;;;;;;;;;;;;;;;;;5036893;28;20015;-76
2021/03/06 06:25:12;;;;;;;;;;;;;;;;;;5036950;28;19927;-77
2021/03/06 06:27:39;;;;;;;;;;;;;;;;;;5036720;28;19921;-77
2021/03/06 06:30:05;;;;;;;;;;;;;;;;;;5036709;28;20401;-77
2021/03/06 06:32:32;;;;;;;;;;;;;;;;;;5036758;28;19921;-76
2021/03/06 06:34:59;;;;;;;;;;;;;;;;;;5036747;28;19952;-77
2021/03/06 06:37:25;;;;;;;;;;;;;;;;;;5036698;28;19924;-77
2021/03/06 06:39:52;;;;;;;;;;;;;;;;;;5036529;28;19921;-77
2021/03/06 06:42:18;;;;;;;;;;;;;;;;;;5036534;28;19925;-76
2021/03/06 06:44:45;;;;;;;;;;;;;;;;;;5036858;28;19925;-77
2021/03/06 06:47:12;;;;;;;;;;;;;;;;;;5036890;28;19921;-77
2021/03/06 06:49:38;;;;;;;;;;;;;;;;;;5036310;28;19928;-76
2021/03/06 06:52:05;;;;;;;;;;;;;;;;;;5036695;28;19925;-76
2021/03/06 06:54:32;;;;;;;;;;;;;;;;;;5036248;28;19920;-76
2021/03/06 06:56:58;;;;;;;;;;;;;;;;;;5036571;28;19920;-76
2021/03/06 06:59:25;;;;;;;;;;;;;;;;;;5036287;28;19925;-76
2021/03/06 07:01:51;;;;;;;;;;;;;;;;;;5036454;28;20320;-76
2021/03/06 07:04:18;;;;;;;;;;;;;;;;;;5036253;28;19921;-76
2021/03/06 07:06:45;;;;;;;;;;;;;;;;;;5036373;28;19925;-76
2021/03/06 07:09:11;;;;;;;;;;;;;;;;;;5036673;28;19921;-76
2021/03/06 07:11:38;;;;;;;;;;;;;;;;;;5035718;28;19936;-76
2021/03/06 07:14:05;;;;;;;;;;;;;;;;;;5035724;28;19991;-74
2021/03/06 07:16:31;;;;;;;;;;;;;;;;;;5036526;28;20298;-74
2021/03/06 07:18:58;;;;;;;;;;;;;;;;;;5035875;28;19925;-74
2021/03/06 07:21:25;;;;;;;;;;;;;;;;;;5018283;28;19925;-74
2021/03/06 07:23:51;;;;;;;;;;;;;;;;;;5035762;28;19968;-74
2021/03/06 07:26:18;;;;;;;;;;;;;;;;;;5035862;28;19928;-74
2021/03/06 07:28:45;;;;;;;;;;;;;;;;;;5035702;28;19921;-74
2021/03/06 07:31:11;;;;;;;;;;;;;;;;;;5035495;28;19967;-73
2021/03/06 07:33:38;;;;;;;;;;;;;;;;;;5035578;28;19921;-73
2021/03/06 07:36:04;;;;;;;;;;;;;;;;;;5035624;28;19988;-74
2021/03/06 07:38:31;;;;;;;;;;;;;;;;;;5035469;28;20393;-74
2021/03/06 07:40:58;;;;;;;;;;;;;;;;;;5035548;28;19928;-74
2021/03/06 07:43:24;;;;;;;;;;;;;;;;;;5035710;28;20326;-74
2021/03/06 07:45:51;;;;;;;;;;;;;;;;;;5035635;28;20275;-73
2021/03/06 07:48:19;;;;;;;;;;;;;;;;;;5035691;28;19925;-74
2021/03/06 07:50:47;;;;;;;;;;;;;;;;;;5035261;28;19925;-76
2021/03/06 07:53:14;;;;;;;;;;;;;;;;;;5035022;28;20370;-76
2021/03/06 07:55:40;;;;;;;;;;;;;;;;;;5035135;28;20367;-76
2021/03/06 07:58:07;;;;;;;;;;;;;;;;;;5035278;28;19928;-77
2021/03/06 08:00:33;;;;;;;;;;;;;;;;;;5035034;28;19921;-76
2021/03/06 08:03:00;;;;;;;;;;;;;;;;;;5035338;28;19956;-76
2021/03/06 08:05:27;;;;;;;;;;;;;;;;;;5034988;28;20370;-76
2021/03/06 08:07:53;;;;;;;;;;;;;;;;;;5035229;28;19921;-76
2021/03/06 08:10:20;;;;;;;;;;;;;;;;;;5034988;28;19921;-76
2021/03/06 08:12:46;;;;;;;;;;;;;;;;;;5035366;28;19952;-76
2021/03/06 08:15:13;;;;;;;;;;;;;;;;;;5035875;28;19921;-77
2021/03/06 08:17:40;;;;;;;;;;;;;;;;;;5035087;28;19921;-77
2021/03/06 08:20:07;;;;;;;;;;;;;;;;;;5035042;28;19983;-76
2021/03/06 08:22:34;;;;;;;;;;;;;;;;;;5034790;28;19921;-76
2021/03/06 08:25:00;;;;;;;;;;;;;;;;;;5033475;28;19921;-78
2021/03/06 08:27:27;;;;;;;;;;;;;;;;;;5032706;28;20366;-76
2021/03/06 08:29:54;;;;;;;;;;;;;;;;;;5033871;28;19925;-76
2021/03/06 08:32:20;;;;;;;;;;;;;;;;;;5016828;28;20366;-75
2021/03/06 08:34:47;;;;;;;;;;;;;;;;;;5034275;28;19959;-76
2021/03/06 08:37:14;;;;;;;;;;;;;;;;;;5034177;28;20393;-76
2021/03/06 08:39:41;;;;;;;;;;;;;;;;;;5034222;28;19925;-76
2021/03/06 08:42:10;;;;;;;;;;;;;;;;;;5034062;28;19974;-73
2021/03/06 08:44:41;;;;;;;;;;;;;;;;;;5034332;28;19975;-73
2021/03/06 08:47:08;;;;;;;;;;;;;;;;;;5034417;28;19920;-73
2021/03/06 08:49:36;;;;;;;;;;;;;;;;;;5034951;28;19925;-73
2021/03/06 08:52:05;;;;;;;;;;;;;;;;;;5034168;28;19927;-73
2021/03/06 08:54:34;;;;;;;;;;;;;;;;;;5016440;28;19921;-74
2021/03/06 08:57:01;;;;;;;;;;;;;;;;;;5033956;28;19928;-73
2021/03/06 08:59:28;;;;;;;;;;;;;;;;;;5034034;28;19921;-74
2021/03/06 09:01:54;;;;;;;;;;;;;;;;;;5034047;28;19983;-74
2021/03/06 09:04:21;;;;;;;;;;;;;;;;;;5033986;28;19921;-74
2021/03/06 09:06:48;;;;;;;;;;;;;;;;;;5033769;28;19921;-74
2021/03/06 09:09:15;;;;;;;;;;;;;;;;;;5034190;28;19927;-74
2021/03/06 09:11:42;;;;;;;;;;;;;;;;;;5034176;28;19943;-71
2021/03/06 09:14:09;;;;;;;;;;;;;;;;;;5034201;28;19928;-71
2021/03/06 09:16:36;;;;;;;;;;;;;;;;;;5033892;28;20290;-71
2021/03/06 09:19:03;;;;;;;;;;;;;;;;;;5034060;28;19921;-72
2021/03/06 09:21:30;;;;;;;;;;;;;;;;;;5033965;28;19921;-72
2021/03/06 09:23:57;;;;;;;;;;;;;;;;;;5034016;28;19921;-72
2021/03/06 09:26:25;;;;;;;;;;;;;;;;;;5033956;28;19925;-72
2021/03/06 09:28:52;;;;;;;;;;;;;;;;;;5033990;28;20332;-72
2021/03/06 09:31:20;;;;;;;;;;;;;;;;;;5034004;28;19928;-72
2021/03/06 09:33:47;;;;;;;;;;;;;;;;;;5016286;28;19921;-72
2021/03/06 09:36:14;;;;;;;;;;;;;;;;;;5034924;28;19928;-71
2021/03/06 09:38:40;;;;;;;;;;;;;;;;;;5037699;28;19928;-71
2021/03/06 09:41:08;;;;;;;;;;;;;;;;;;5037761;28;19936;-71
2021/03/06 09:43:35;;;;;;;;;;;;;;;;;;5037887;28;19939;-71
2021/03/06 09:46:02;;;;;;;;;;;;;;;;;;5037587;28;19921;-71
2021/03/06 09:48:29;;;;;;;;;;;;;;;;;;5037821;28;19921;-71
2021/03/06 09:50:57;;;;;;;;;;;;;;;;;;5037236;28;19925;-71
2021/03/06 09:53:26;;;;;;;;;;;;;;;;;;5037346;28;20012;-70
2021/03/06 09:55:54;;;;;;;;;;;;;;;;;;5037339;28;19943;-71
2021/03/06 09:58:23;;;;;;;;;;;;;;;;;;5037203;28;19920;-71
2021/03/06 10:00:51;;;;;;;;;;;;;;;;;;5037169;28;19971;-71
2021/03/06 10:03:19;;;;;;;;;;;;;;;;;;5037336;28;19921;-71
2021/03/06 10:05:46;;;;;;;;;;;;;;;;;;5037497;28;19948;-71
2021/03/06 10:08:14;;;;;;;;;;;;;;;;;;5037240;28;19921;-71
2021/03/06 10:10:41;;;;;;;;;;;;;;;;;;5037184;28;19921;-71
2021/03/06 10:13:08;;;;;;;;;;;;;;;;;;5037124;28;20337;-71
2021/03/06 10:15:36;;;;;;;;;;;;;;;;;;5037354;28;19921;-71
2021/03/06 10:18:03;;;;;;;;;;;;;;;;;;5037257;28;19921;-71
2021/03/06 10:20:30;;;;;;;;;;;;;;;;;;5036660;28;19944;-71
2021/03/06 10:22:58;;;;;;;;;;;;;;;;;;5036763;28;19921;-71
2021/03/06 10:25:24;;;;;;;;;;;;;;;;;;5036771;28;19928;-71
2021/03/06 10:27:52;;;;;;;;;;;;;;;;;;5036919;28;19921;-71
2021/03/06 10:30:19;;;;;;;;;;;;;;;;;;5036746;28;19921;-71
2021/03/06 10:32:46;;;;;;;;;;;;;;;;;;5037107;28;19927;-70
2021/03/06 10:35:13;;;;;;;;;;;;;;;;;;5037039;28;19928;-71
2021/03/06 10:37:39;;;;;;;;;;;;;;;;;;5036961;28;19936;-72
2021/03/06 10:40:10;;;;;;;;;;;;;;;;;;5036770;28;19948;-71
2021/03/06 10:42:36;;;;;;;;;;;;;;;;;;5036464;28;19975;-72
2021/03/06 10:45:03;;;;;;;;;;;;;;;;;;5036498;28;19928;-71
2021/03/06 10:47:29;;;;;;;;;;;;;;;;;;5035453;28;20367;-72
2021/03/06 10:49:56;;;;;;;;;;;;;;;;;;5036067;28;19932;-72
2021/03/06 10:52:23;;;;;;;;;;;;;;;;;;5036514;28;19928;-72
2021/03/06 10:54:49;;;;;;;;;;;;;;;;;;5036553;28;19920;-72
2021/03/06 10:57:16;;;;;;;;;;;;;;;;;;5036266;28;20367;-72
2021/03/06 10:59:43;;;;;;;;;;;;;;;;;;5036387;28;20389;-71
2021/03/06 11:02:09;;;;;;;;;;;;;;;;;;5036449;28;20385;-72
2021/03/06 11:04:36;;;;;;;;;;;;;;;;;;5036121;28;20394;-71
2021/03/06 11:07:03;;;;;;;;;;;;;;;;;;5036441;28;20015;-72
2021/03/06 11:09:29;;;;;;;;;;;;;;;;;;5018324;28;19921;-72
2021/03/06 11:11:56;;;;;;;;;;;;;;;;;;5035940;28;19925;-72
2021/03/06 11:14:23;;;;;;;;;;;;;;;;;;5036341;28;19921;-72
2021/03/06 11:16:50;;;;;;;;;;;;;;;;;;5036116;28;19921;-72
2021/03/06 11:19:17;;;;;;;;;;;;;;;;;;5036132;28;20430;-73
2021/03/06 11:21:43;;;;;;;;;;;;;;;;;;5035735;28;19928;-72
2021/03/06 11:24:10;;;;;;;;;;;;;;;;;;5036094;28;19928;-72
2021/03/06 11:26:36;;;;;;;;;;;;;;;;;;5035434;28;19921;-71
2021/03/06 11:29:03;;;;;;;;;;;;;;;;;;5035934;28;19921;-71
2021/03/06 11:31:31;;;;;;;;;;;;;;;;;;5035961;28;19936;-71
2021/03/06 11:33:58;;;;;;;;;;;;;;;;;;5035616;28;19972;-71
2021/03/06 11:36:25;;;;;;;;;;;;;;;;;;5035534;28;19921;-72
2021/03/06 11:38:51;;;;;;;;;;;;;;;;;;5035273;28;19921;-71
2021/03/06 11:41:18;;;;;;;;;;;;;;;;;;5035580;28;19920;-72
2021/03/06 11:43:45;;;;;;;;;;;;;;;;;;5036066;28;19920;-72
2021/03/06 11:46:11;;;;;;;;;;;;;;;;;;5035313;28;19925;-71
2021/03/06 11:48:38;;;;;;;;;;;;;;;;;;5035334;28;19928;-71
2021/03/06 11:51:05;;;;;;;;;;;;;;;;;;5035120;28;19943;-71
2021/03/06 11:53:32;;;;;;;;;;;;;;;;;;5035472;28;19921;-72
2021/03/06 11:55:59;;;;;;;;;;;;;;;;;;5035905;28;20321;-72
2021/03/06 11:58:25;;;;;;;;;;;;;;;;;;5034959;28;19929;-72
2021/03/06 12:00:52;;;;;;;;;;;;;;;;;;5034892;28;19928;-72
2021/03/06 12:03:19;;;;;;;;;;;;;;;;;;5035345;28;19925;-72
2021/03/06 12:05:46;;;;;;;;;;;;;;;;;;5035567;28;19925;-72
2021/03/06 12:08:12;;;;;;;;;;;;;;;;;;5035032;28;19921;-72
2021/03/06 12:10:39;;;;;;;;;;;;;;;;;;5034923;28;19921;-72
2021/03/06 12:13:06;;;;;;;;;;;;;;;;;;5034954;28;20294;-74
2021/03/06 12:15:33;;;;;;;;;;;;;;;;;;5034352;28;19921;-73
2021/03/06 12:17:59;;;;;;;;;;;;;;;;;;5033785;28;19921;-73
2021/03/06 12:20:26;;;;;;;;;;;;;;;;;;5034849;28;19925;-73
2021/03/06 12:22:53;;;;;;;;;;;;;;;;;;5034556;28;20413;-73
2021/03/06 12:25:19;;;;;;;;;;;;;;;;;;5034538;28;19924;-73
2021/03/06 12:27:46;;;;;;;;;;;;;;;;;;5034484;28;19932;-73
2021/03/06 12:30:13;;;;;;;;;;;;;;;;;;5034860;28;19928;-74
2021/03/06 12:32:39;;;;;;;;;;;;;;;;;;5034831;28;19951;-73
2021/03/06 12:35:06;;;;;;;;;;;;;;;;;;5034834;28;20354;-73
2021/03/06 12:37:32;;;;;;;;;;;;;;;;;;5017289;28;19921;-73
2021/03/06 12:39:59;;;;;;;;;;;;;;;;;;5034383;28;19975;-73
2021/03/06 12:42:26;;;;;;;;;;;;;;;;;;5034592;28;20390;-73
2021/03/06 12:44:52;;;;;;;;;;;;;;;;;;5034523;28;19921;-73
2021/03/06 12:47:19;;;;;;;;;;;;;;;;;;5034577;28;20329;-73
2021/03/06 12:49:46;;;;;;;;;;;;;;;;;;5034385;28;20413;-73
2021/03/06 12:52:12;;;;;;;;;;;;;;;;;;5034320;28;19971;-73
2021/03/06 12:54:39;;;;;;;;;;;;;;;;;;5034229;28;19928;-73
2021/03/06 12:57:06;;;;;;;;;;;;;;;;;;5034247;28;19925;-73
2021/03/06 12:59:32;;;;;;;;;;;;;;;;;;5033984;28;19921;-73
2021/03/06 13:01:59;;;;;;;;;;;;;;;;;;5034184;28;19968;-73
2021/03/06 13:04:25;;;;;;;;;;;;;;;;;;5034286;28;19925;-73
2021/03/06 13:06:52;;;;;;;;;;;;;;;;;;5034304;28;19920;-73
2021/03/06 13:09:19;;;;;;;;;;;;;;;;;;5034467;28;19920;-73
2021/03/06 13:11:45;;;;;;;;;;;;;;;;;;5033581;28;19983;-73
2021/03/06 13:14:12;;;;;;;;;;;;;;;;;;5034271;28;19962;-74
2021/03/06 13:16:38;;;;;;;;;;;;;;;;;;5034324;28;19920;-73
2021/03/06 13:19:05;;;;;;;;;;;;;;;;;;5034170;28;19921;-73
2021/03/06 13:21:32;;;;;;;;;;;;;;;;;;5034139;28;19920;-73
2021/03/06 13:23:58;;;;;;;;;;;;;;;;;;5034079;28;19928;-73
2021/03/06 13:26:25;;;;;;;;;;;;;;;;;;5034050;28;20028;-74
2021/03/06 13:28:52;;;;;;;;;;;;;;;;;;5034398;28;19948;-73
2021/03/06 13:31:18;;;;;;;;;;;;;;;;;;5034060;28;19925;-74
2021/03/06 13:33:45;;;;;;;;;;;;;;;;;;5034378;28;19921;-73
2021/03/06 13:36:11;;;;;;;;;;;;;;;;;;5034080;28;19928;-73
2021/03/06 13:38:38;;;;;;;;;;;;;;;;;;5034071;28;19921;-73
2021/03/06 13:41:05;;;;;;;;;;;;;;;;;;5033927;28;19952;-74
2021/03/06 13:43:31;;;;;;;;;;;;;;;;;;5033728;28;19921;-73
2021/03/06 13:45:58;;;;;;;;;;;;;;;;;;5033622;28;19921;-72
2021/03/06 13:48:25;;;;;;;;;;;;;;;;;;5033957;28;20278;-73
2021/03/06 13:50:51;;;;;;;;;;;;;;;;;;5034410;28;19964;-73
2021/03/06 13:53:18;;;;;;;;;;;;;;;;;;5033720;28;19921;-74
2021/03/06 13:55:44;;;;;;;;;;;;;;;;;;5033736;28;19921;-73
2021/03/06 13:58:11;;;;;;;;;;;;;;;;;;5033716;28;20015;-74
2021/03/06 14:00:38;;;;;;;;;;;;;;;;;;5033507;28;19921;-74
2021/03/06 14:03:04;;;;;;;;;;;;;;;;;;5033398;28;19928;-73
2021/03/06 14:05:31;;;;;;;;;;;;;;;;;;5033356;28;19928;-74
2021/03/06 14:07:57;;;;;;;;;;;;;;;;;;5033511;28;19968;-73
2021/03/06 14:10:25;;;;;;;;;;;;;;;;;;5033098;28;19972;-73
2021/03/06 14:12:52;;;;;;;;;;;;;;;;;;5033123;28;20020;-74
2021/03/06 14:15:18;;;;;;;;;;;;;;;;;;5033585;28;19928;-73
2021/03/06 14:17:45;;;;;;;;;;;;;;;;;;5033374;28;20340;-73
2021/03/06 14:20:12;;;;;;;;;;;;;;;;;;5033737;28;19944;-73
2021/03/06 14:22:38;;;;;;;;;;;;;;;;;;5035078;28;20278;-73
2021/03/06 14:25:05;;;;;;;;;;;;;;;;;;5036950;28;19921;-73
2021/03/06 14:27:31;;;;;;;;;;;;;;;;;;5036943;28;19928;-73
2021/03/06 14:29:58;;;;;;;;;;;;;;;;;;5034969;28;19982;-74
2021/03/06 14:32:25;;;;;;;;;;;;;;;;;;5019098;28;19920;-74
2021/03/06 14:34:51;;;;;;;;;;;;;;;;;;5019389;28;19921;-75
2021/03/06 14:37:18;;;;;;;;;;;;;;;;;;5036770;28;19921;-79
2021/03/06 14:39:45;;;;;;;;;;;;;;;;;;5036868;28;19920;-73
2021/03/06 14:42:12;;;;;;;;;;;;;;;;;;5036568;28;19972;-73
2021/03/06 14:44:38;;;;;;;;;;;;;;;;;;5036486;28;20359;-73
2021/03/06 14:47:05;;;;;;;;;;;;;;;;;;5036675;28;19928;-73
2021/03/06 14:49:32;;;;;;;;;;;;;;;;;;5036634;28;19921;-73
2021/03/06 14:51:58;;;;;;;;;;;;;;;;;;5036471;28;19967;-73
2021/03/06 14:54:25;;;;;;;;;;;;;;;;;;5036762;28;19921;-73
2021/03/06 14:56:52;;;;;;;;;;;;;;;;;;5036727;28;19921;-73
2021/03/06 14:59:18;;;;;;;;;;;;;;;;;;5036423;28;20020;-72
2021/03/06 15:01:45;;;;;;;;;;;;;;;;;;5036370;28;19921;-73
2021/03/06 15:04:11;;;;;;;;;;;;;;;;;;5039574;28;19921;-72
2021/03/06 15:06:38;;;;;;;;;;;;;;;;;;5037045;28;19967;-73
2021/03/06 15:09:05;;;;;;;;;;;;;;;;;;5036162;28;19921;-72
2021/03/06 15:11:32;;;;;;;;;;;;;;;;;;5036156;28;19921;-73
2021/03/06 15:13:58;;;;;;;;;;;;;;;;;;5036233;28;19921;-73
2021/03/06 15:16:25;;;;;;;;;;;;;;;;;;5035931;28;19921;-73
2021/03/06 15:18:51;;;;;;;;;;;;;;;;;;5036289;28;19921;-73
2021/03/06 15:21:18;;;;;;;;;;;;;;;;;;5035708;28;19967;-73
2021/03/06 15:23:45;;;;;;;;;;;;;;;;;;5036164;28;19975;-73
2021/03/06 15:26:11;;;;;;;;;;;;;;;;;;5035742;28;19921;-73
2021/03/06 15:28:38;;;;;;;;;;;;;;;;;;5035985;28;19920;-73
2021/03/06 15:31:05;;;;;;;;;;;;;;;;;;5035869;28;19921;-73
2021/03/06 15:33:31;;;;;;;;;;;;;;;;;;5035363;28;19928;-73
2021/03/06 15:35:58;;;;;;;;;;;;;;;;;;5035761;28;19921;-73
2021/03/06 15:38:26;;;;;;;;;;;;;;;;;;5035915;28;19921;-73
2021/03/06 15:40:52;;;;;;;;;;;;;;;;;;5035536;28;20259;-73
2021/03/06 15:43:19;;;;;;;;;;;;;;;;;;5035489;28;20286;-72
2021/03/06 15:45:45;;;;;;;;;;;;;;;;;;5035894;28;19951;-73
2021/03/06 15:48:12;;;;;;;;;;;;;;;;;;5035789;28;19921;-73
2021/03/06 15:50:40;;;;;;;;;;;;;;;;;;5035619;28;19921;-73
2021/03/06 15:53:07;;;;;;;;;;;;;;;;;;5035490;28;19928;-73
2021/03/06 15:55:34;;;;;;;;;;;;;;;;;;5035300;28;19921;-73
2021/03/06 15:58:00;;;;;;;;;;;;;;;;;;5034913;28;20379;-73
2021/03/06 16:00:27;;;;;;;;;;;;;;;;;;5034997;28;20370;-73
2021/03/06 16:02:54;;;;;;;;;;;;;;;;;;5035346;28;20295;-73
2021/03/06 16:05:20;;;;;;;;;;;;;;;;;;5035376;28;19921;-73
2021/03/06 16:07:47;;;;;;;;;;;;;;;;;;5034686;28;20378;-74
2021/03/06 16:10:14;;;;;;;;;;;;;;;;;;5034943;28;19928;-75
2021/03/06 16:12:40;;;;;;;;;;;;;;;;;;5035253;28;19929;-73
2021/03/06 16:15:07;;;;;;;;;;;;;;;;;;5034945;28;20425;-74
2021/03/06 16:17:34;;;;;;;;;;;;;;;;;;5034916;28;19921;-79
2021/03/06 16:20:00;;;;;;;;;;;;;;;;;;5035021;28;19925;-75
2021/03/06 16:22:27;;;;;;;;;;;;;;;;;;5035175;28;19928;-76
2021/03/06 16:24:53;;;;;;;;;;;;;;;;;;5034779;28;19928;-76
2021/03/06 16:27:20;;;;;;;;;;;;;;;;;;5035020;28;19921;-79
2021/03/06 16:29:47;;;;;;;;;;;;;;;;;;5034989;28;19974;-78
2021/03/06 16:32:13;;;;;;;;;;;;;;;;;;5034942;28;19967;-77
2021/03/06 16:34:40;;;;;;;;;;;;;;;;;;5034708;28;19936;-82
2021/03/06 16:37:06;;;;;;;;;;;;;;;;;;5034556;28;19929;-76
2021/03/06 16:39:33;;;;;;;;;;;;;;;;;;5034748;28;19928;-76
2021/03/06 16:42:00;;;;;;;;;;;;;;;;;;5034648;28;19925;-76